Time;durP1;ratioP1;P1;durP2;ratioP2;P2;SDS_P1;SDS_P2;PMS_P1;PMS_P2;Temp;Humidity;BMP_temperature;BMP_pressure;BME280_temperature;BME280_humidity;BME280_pressure;Samples;Min_cycle;Max_cycle;Signal;HPM_P1;HPM_P2
2021/12/25 00:00:57;;;;;;;1.20;1.10;;;22.90;31.10;;;;;;5152924;27;20047;-67
2021/12/25 00:03:25;;;;;;;0.93;0.73;;;22.90;31.10;;;;;;5153575;27;20128;-67
2021/12/25 00:05:53;;;;;;;1.02;0.93;;;22.90;31.10;;;;;;5153255;27;20471;-67
2021/12/25 00:08:22;;;;;;;0.60;0.60;;;22.90;31.10;;;;;;5152360;27;20078;-67
2021/12/25 00:10:50;;;;;;;1.17;0.90;;;22.90;31.20;;;;;;5134255;27;20465;-66
2021/12/25 00:13:20;;;;;;;1.00;0.90;;;22.90;31.20;;;;;;5153340;27;20047;-67
2021/12/25 00:15:48;;;;;;;;;;;22.90;31.20;;;;;;5153013;27;20113;-66
2021/12/25 00:18:17;;;;;;;1.10;0.80;;;22.90;31.20;;;;;;5152578;27;19962;-67
2021/12/25 00:20:44;;;;;;;0.55;0.55;;;22.90;31.20;;;;;;5152774;27;20047;-66
2021/12/25 00:23:11;;;;;;;0.77;0.70;;;22.90;31.20;;;;;;5152894;27;20085;-66
2021/12/25 00:25:44;;;;;;;1.10;0.95;;;22.90;31.20;;;;;;5152573;27;20092;-67
2021/12/25 00:31:09;;;;;;;0.90;0.90;;;22.90;31.20;;;;;;5152346;27;20050;-67
2021/12/25 00:33:56;;;;;;;0.77;0.75;;;22.90;31.20;;;;;;5152563;27;20392;-66
2021/12/25 00:36:24;;;;;;;1.05;0.90;;;22.90;31.20;;;;;;5151399;27;20050;-66
2021/12/25 00:38:52;;;;;;;1.15;1.05;;;22.80;31.20;;;;;;5152197;27;20487;-67
2021/12/25 00:41:22;;;;;;;0.77;0.77;;;22.90;31.30;;;;;;5152146;27;20099;-67
2021/12/25 00:43:49;;;;;;;0.80;0.80;;;22.80;31.20;;;;;;5152810;27;20070;-66
2021/12/25 00:46:17;;;;;;;1.23;1.13;;;22.80;31.20;;;;;;5151275;27;20043;-67
2021/12/25 00:48:44;;;;;;;1.08;1.02;;;22.80;31.30;;;;;;5152358;27;20154;-66
2021/12/25 00:51:11;;;;;;;1.15;1.05;;;22.80;31.20;;;;;;5152058;27;20125;-67
2021/12/25 00:53:38;;;;;;;0.80;0.80;;;22.80;31.30;;;;;;5152861;27;20050;-66
2021/12/25 00:56:05;;;;;;;0.85;0.85;;;22.80;31.30;;;;;;5151604;27;20158;-70
2021/12/25 00:58:33;;;;;;;0.93;0.93;;;22.80;31.30;;;;;;5151541;27;20492;-67
2021/12/25 01:01:00;;;;;;;0.90;0.88;;;22.80;31.30;;;;;;5151957;27;20129;-66
2021/12/25 01:03:27;;;;;;;0.90;0.90;;;22.80;31.30;;;;;;5152107;27;20057;-66
2021/12/25 01:05:56;;;;;;;1.15;1.05;;;22.80;31.30;;;;;;5151581;27;20131;-66
2021/12/25 01:08:23;;;;;;;0.70;0.70;;;22.80;31.30;;;;;;5151647;27;20134;-66
2021/12/25 01:10:50;;;;;;;1.00;0.88;;;22.80;31.30;;;;;;5151609;27;20129;-66
2021/12/25 01:13:29;;;;;;;1.73;1.38;;;22.80;31.30;;;;;;5152035;27;20555;-67
2021/12/25 01:16:14;;;;;;;1.10;1.05;;;22.80;31.30;;;;;;5151103;27;20077;-67
2021/12/25 01:19:14;;;;;;;0.85;0.82;;;22.80;31.30;;;;;;5151655;27;20042;-67
2021/12/25 01:21:54;;;;;;;1.08;1.05;;;22.80;31.40;;;;;;5151698;27;20085;-66
2021/12/25 01:24:44;;;;;;;1.08;0.98;;;22.80;31.40;;;;;;5155515;27;20053;-67
2021/12/25 01:30:00;;;;;;;1.27;1.17;;;22.80;31.40;;;;;;5141109;27;20085;-66
2021/12/25 01:33:18;;;;;;;1.00;1.00;;;22.80;31.40;;;;;;5155447;27;20111;-67
2021/12/25 01:35:42;;;;;;;1.13;1.00;;;22.80;31.40;;;;;;5155361;27;20043;-67
2021/12/25 01:40:58;;;;;;;1.35;1.08;;;22.80;31.40;;;;;;5156036;27;20407;-66
2021/12/25 01:48:59;;;;;;;0.90;0.90;;;22.80;31.30;;;;;;5156110;27;20391;-66
2021/12/25 01:51:26;;;;;;;1.08;0.98;;;22.80;31.40;;;;;;5155685;27;20039;-66
2021/12/25 01:53:54;;;;;;;0.73;0.73;;;22.80;31.40;;;;;;5155955;27;20466;-66
2021/12/25 01:56:22;;;;;;;0.95;0.90;;;22.80;31.40;;;;;;5154285;27;20482;-67
2021/12/25 01:58:51;;;;;;;0.60;0.60;;;22.80;31.40;;;;;;5155679;27;20050;-66
2021/12/25 02:01:19;;;;;;;1.48;0.98;;;22.80;31.40;;;;;;5155396;27;20074;-66
2021/12/25 02:03:46;;;;;;;1.20;1.10;;;22.80;31.40;;;;;;5155649;27;20115;-66
2021/12/25 02:06:14;;;;;;;1.33;1.10;;;22.80;31.40;;;;;;5154475;27;20087;-66
2021/12/25 02:08:43;;;;;;;0.90;0.85;;;22.80;31.40;;;;;;5155206;27;20057;-66
2021/12/25 02:11:12;;;;;;;1.13;1.00;;;22.80;31.40;;;;;;5155700;27;20110;-66
2021/12/25 02:13:41;;;;;;;1.55;1.17;;;22.80;31.40;;;;;;5137100;27;20077;-66
2021/12/25 02:16:14;;;;;;;1.20;1.10;;;22.80;31.40;;;;;;5153998;27;20483;-66
2021/12/25 02:19:00;;;;;;;0.80;0.80;;;22.80;31.40;;;;;;5155069;27;20051;-66
2021/12/25 02:21:36;;;;;;;1.00;1.00;;;22.70;31.40;;;;;;5155025;27;20129;-66
2021/12/25 02:24:05;;;;;;;1.08;0.98;;;22.80;31.50;;;;;;5155080;27;20498;-66
2021/12/25 02:26:33;;;;;;;0.88;0.88;;;22.70;31.40;;;;;;5135274;27;20125;-66
2021/12/25 02:29:00;;;;;;;0.85;0.85;;;22.80;31.50;;;;;;5155059;27;20239;-66
2021/12/25 02:31:27;;;;;;;0.80;0.80;;;22.70;31.40;;;;;;5154827;27;20076;-66
2021/12/25 02:33:55;;;;;;;1.55;0.90;;;22.70;31.40;;;;;;5154569;27;20156;-66
2021/12/25 02:36:22;;;;;;;1.10;1.00;;;22.70;31.40;;;;;;5153843;27;20051;-68
2021/12/25 02:38:51;;;;;;;1.25;0.90;;;22.70;31.50;;;;;;5154509;27;20479;-66
2021/12/25 02:41:19;;;;;;;1.10;1.00;;;22.70;31.50;;;;;;5136871;27;20125;-66
2021/12/25 02:43:47;;;;;;;1.00;0.95;;;22.70;31.50;;;;;;5154617;27;20129;-66
2021/12/25 02:46:16;;;;;;;1.00;1.00;;;22.70;31.50;;;;;;5153676;27;20035;-66
2021/12/25 02:48:43;;;;;;;1.77;1.10;;;22.70;31.50;;;;;;5154217;27;20054;-66
2021/12/25 02:51:12;;;;;;;1.13;1.02;;;22.70;31.50;;;;;;5154314;27;20506;-66
2021/12/25 02:53:40;;;;;;;1.70;1.05;;;22.70;31.50;;;;;;5154433;27;20074;-66
2021/12/25 02:56:08;;;;;;;1.27;0.85;;;22.70;31.50;;;;;;5153476;27;20099;-66
2021/12/25 02:58:35;;;;;;;1.33;1.23;;;22.70;31.50;;;;;;5153749;27;20548;-66
2021/12/25 03:01:10;;;;;;;1.08;0.98;;;22.70;31.50;;;;;;5136553;27;20047;-66
2021/12/25 03:03:38;;;;;;;0.80;0.80;;;22.70;31.60;;;;;;5154425;27;20053;-66
2021/12/25 03:06:07;;;;;;;1.58;1.38;;;22.70;31.50;;;;;;5135549;27;20154;-66
2021/12/25 03:08:35;;;;;;;1.23;1.00;;;22.70;31.60;;;;;;5153602;27;20085;-67
2021/12/25 03:11:06;;;;;;;0.90;0.90;;;22.70;31.60;;;;;;5154572;27;20046;-66
2021/12/25 03:13:44;;;;;;;0.77;0.77;;;22.70;31.60;;;;;;5153942;27;20107;-67
2021/12/25 03:16:12;;;;;;;0.85;0.85;;;22.70;31.60;;;;;;5153008;27;20078;-66
2021/12/25 03:18:47;;;;;;;0.85;0.85;;;22.70;32.20;;;;;;5153822;27;20046;-66
2021/12/25 03:21:17;;;;;;;1.45;1.15;;;22.70;31.60;;;;;;5153641;27;20475;-66
2021/12/25 03:23:46;;;;;;;0.70;0.70;;;22.70;31.60;;;;;;5154124;27;20039;-66
2021/12/25 03:26:14;;;;;;;1.20;0.95;;;22.70;31.60;;;;;;5153777;27;20075;-66
2021/12/25 03:28:44;;;;;;;1.20;0.98;;;22.70;31.60;;;;;;5153420;27;20057;-66
2021/12/25 03:31:18;;;;;;;1.38;1.27;;;22.70;31.60;;;;;;5153896;27;20114;-66
2021/12/25 03:33:51;;;;;;;0.70;0.70;;;22.70;31.70;;;;;;5153774;27;20057;-66
2021/12/25 03:36:18;;;;;;;1.10;1.00;;;22.70;31.70;;;;;;5152781;27;20125;-66
2021/12/25 03:38:46;;;;;;;1.60;1.30;;;22.70;31.60;;;;;;5153809;27;20135;-66
2021/12/25 03:41:15;;;;;;;0.93;0.90;;;22.70;31.70;;;;;;5153563;27;20552;-66
2021/12/25 03:43:43;;;;;;;1.05;1.00;;;22.70;31.60;;;;;;5153426;27;20047;-66
2021/12/25 03:46:11;;;;;;;0.95;0.90;;;22.70;31.60;;;;;;5152118;27;20122;-66
2021/12/25 03:48:59;;;;;;;0.95;0.90;;;22.70;31.70;;;;;;5153194;27;20046;-66
2021/12/25 03:59:56;;;;;;;1.48;0.90;;;22.70;31.70;;;;;;5153399;27;20448;-66
2021/12/25 04:02:30;;;;;;;1.23;0.80;;;22.70;31.70;;;;;;5153055;27;20039;-66
2021/12/25 04:05:00;;;;;;;1.25;1.15;;;22.60;31.60;;;;;;5153298;27;20490;-66
2021/12/25 04:08:00;;;;;;;1.25;1.00;;;22.60;31.60;;;;;;5151808;27;20045;-65
2021/12/25 04:10:19;;;;;;;1.13;1.02;;;22.60;31.70;;;;;;5152610;27;20456;-65
2021/12/25 04:12:47;;;;;;;1.50;1.10;;;22.60;31.70;;;;;;5152935;27;20107;-65
2021/12/25 04:15:14;;;;;;;1.27;1.17;;;22.60;31.70;;;;;;5152676;27;20089;-65
2021/12/25 04:17:41;;;;;;;1.05;1.00;;;22.60;31.70;;;;;;5152120;27;20463;-67
2021/12/25 04:20:09;;;;;;;1.23;1.13;;;22.60;31.70;;;;;;5152978;27;20050;-65
2021/12/25 04:22:45;;;;;;;1.15;1.05;;;22.60;31.70;;;;;;5152808;27;20518;-66
2021/12/25 04:25:13;;;;;;;1.20;1.10;;;22.60;31.70;;;;;;5152914;27;20088;-66
2021/12/25 04:27:40;;;;;;;1.17;1.00;;;22.60;31.70;;;;;;5151326;27;20125;-66
2021/12/25 04:30:21;;;;;;;0.90;0.90;;;22.50;31.70;;;;;;5152450;27;20114;-66
2021/12/25 04:33:27;;;;;;;0.93;0.88;;;22.50;31.70;;;;;;5152055;27;20085;-66
2021/12/25 05:06:06;;;;;;;0.73;0.73;;;22.50;31.80;;;;;;5151313;27;20096;-66
2021/12/25 05:08:33;;;;;;;0.73;0.70;;;22.50;31.80;;;;;;5151803;27;20039;-66
2021/12/25 05:11:00;;;;;;;1.00;0.90;;;22.50;31.90;;;;;;5151830;27;20126;-65
2021/12/25 05:13:27;;;;;;;0.95;0.90;;;22.50;31.90;;;;;;5152208;27;20095;-65
2021/12/25 05:15:55;;;;;;;1.38;1.10;;;22.50;31.90;;;;;;5151394;27;20747;-65
2021/12/25 05:18:22;;;;;;;1.13;1.02;;;22.50;31.90;;;;;;5151307;27;20039;-65
2021/12/25 05:20:49;;;;;;;1.13;1.02;;;22.50;31.90;;;;;;5152177;27;20050;-66
2021/12/25 05:23:16;;;;;;;1.02;0.80;;;22.50;31.90;;;;;;5151779;27;20054;-65
2021/12/25 05:25:43;;;;;;;1.13;1.00;;;22.50;31.90;;;;;;5151823;27;20074;-66
2021/12/25 05:28:12;;;;;;;1.30;0.98;;;22.50;31.90;;;;;;5150796;27;20053;-65
2021/12/25 05:30:40;;;;;;;1.13;1.02;;;22.50;31.90;;;;;;5151803;27;20050;-65
2021/12/25 05:33:07;;;;;;;1.23;1.13;;;22.50;31.90;;;;;;5152197;27;20051;-65
2021/12/25 05:35:35;;;;;;;1.27;1.17;;;22.50;31.80;;;;;;5151316;27;20082;-65
2021/12/25 05:38:02;;;;;;;0.77;0.77;;;22.50;31.80;;;;;;5150881;27;20452;-66
2021/12/25 05:40:29;;;;;;;1.20;1.10;;;22.50;31.80;;;;;;5151560;27;20443;-66
2021/12/25 05:42:56;;;;;;;1.10;1.00;;;22.50;31.90;;;;;;5152148;27;20050;-66
2021/12/25 05:45:23;;;;;;;1.17;1.08;;;22.50;31.90;;;;;;5152007;27;20126;-65
2021/12/25 05:47:50;;;;;;;1.10;0.93;;;22.50;31.90;;;;;;5132150;27;20090;-65
2021/12/25 05:50:18;;;;;;;1.13;1.05;;;22.50;31.90;;;;;;5151618;27;20479;-66
2021/12/25 05:52:45;;;;;;;0.70;0.70;;;22.50;31.90;;;;;;5151390;27;20074;-65
2021/12/25 05:55:12;;;;;;;0.82;0.82;;;22.50;31.90;;;;;;5151521;27;20133;-66
2021/12/25 05:57:39;;;;;;;1.00;1.00;;;22.50;31.90;;;;;;5150262;27;20126;-65
2021/12/25 06:00:07;;;;;;;1.00;0.90;;;22.50;31.90;;;;;;5151702;27;20129;-65
2021/12/25 06:02:36;;;;;;;0.98;0.85;;;22.50;31.90;;;;;;5151409;27;20042;-65
2021/12/25 06:05:06;;;;;;;1.13;0.98;;;22.50;31.90;;;;;;5151468;27;20445;-66
2021/12/25 06:07:34;;;;;;;1.20;1.07;;;22.50;31.90;;;;;;5150775;27;20105;-65
2021/12/25 06:10:03;;;;;;;1.52;1.40;;;22.50;31.80;;;;;;5154086;27;20386;-66
2021/12/25 06:12:31;;;;;;;1.90;1.42;;;22.40;31.70;;;;;;5155071;27;20068;-65
2021/12/25 06:15:01;;;;;;;2.42;1.35;;;22.50;31.70;;;;;;5155315;27;20078;-67
2021/12/25 06:17:29;;;;;;;1.80;1.70;;;22.50;32.20;;;;;;5153830;27;20095;-65
2021/12/25 06:19:56;;;;;;;2.35;2.10;;;22.50;31.60;;;;;;5155669;27;20618;-66
2021/12/25 06:22:23;;;;;;;2.42;2.22;;;22.50;31.50;;;;;;5155163;27;20078;-66
2021/12/25 06:24:51;;;;;;;1.85;1.75;;;22.50;31.50;;;;;;5155278;27;20078;-66
2021/12/25 06:27:21;;;;;;;2.55;2.25;;;22.50;31.50;;;;;;5153512;27;20058;-66
2021/12/25 06:29:51;;;;;;;2.25;2.05;;;22.40;31.50;;;;;;5155301;27;20053;-66
2021/12/25 06:32:20;;;;;;;2.05;1.90;;;22.40;31.60;;;;;;5136780;27;20134;-66
2021/12/25 06:34:47;;;;;;;2.70;2.50;;;22.40;31.60;;;;;;5154744;27;20046;-66
2021/12/25 06:37:16;;;;;;;3.10;2.80;;;22.40;31.60;;;;;;5153172;27;20074;-67
2021/12/25 06:39:44;;;;;;;2.88;2.63;;;22.40;31.70;;;;;;5136842;27;20047;-66
2021/12/25 06:42:11;;;;;;;3.13;2.63;;;22.40;31.60;;;;;;5136648;27;20129;-66
2021/12/25 06:44:38;;;;;;;2.63;2.42;;;22.40;31.60;;;;;;5155133;27;20158;-66
2021/12/25 06:47:06;;;;;;;3.17;2.72;;;22.40;31.60;;;;;;5153490;27;20049;-66
2021/12/25 06:49:33;;;;;;;2.85;2.63;;;22.50;31.60;;;;;;5155074;27;20046;-66
2021/12/25 06:52:06;;;;;;;3.25;2.78;;;22.50;31.50;;;;;;5154790;27;20045;-66
2021/12/25 06:54:34;;;;;;;4.43;3.25;;;22.50;31.50;;;;;;5154941;27;20447;-66
2021/12/25 06:57:02;;;;;;;3.53;3.08;;;22.60;31.50;;;;;;5153438;27;20134;-66
2021/12/25 06:59:30;;;;;;;3.42;2.67;;;22.60;31.40;;;;;;5154754;27;20138;-66
2021/12/25 07:01:58;;;;;;;4.22;3.60;;;22.60;31.30;;;;;;5154226;27;20074;-66
2021/12/25 07:04:25;;;;;;;3.42;3.13;;;22.70;31.30;;;;;;5136759;27;20088;-65
2021/12/25 07:06:52;;;;;;;3.22;2.92;;;22.70;31.20;;;;;;5152941;27;20198;-65
2021/12/25 07:09:20;;;;;;;3.67;3.35;;;22.70;31.20;;;;;;5154259;27;20133;-66
2021/12/25 07:11:47;;;;;;;3.38;3.08;;;22.80;31.20;;;;;;5154321;27;20456;-66
2021/12/25 07:14:14;;;;;;;4.72;3.55;;;22.80;31.10;;;;;;5154418;27;20551;-66
2021/12/25 07:16:42;;;;;;;4.07;3.60;;;22.90;31.10;;;;;;5152634;27;20042;-66
2021/12/25 07:19:15;;;;;;;4.32;3.70;;;22.90;31.00;;;;;;5154496;27;20065;-66
2021/12/25 07:21:43;;;;;;;4.03;3.53;;;22.90;31.00;;;;;;5152971;27;20115;-65
2021/12/25 07:24:11;;;;;;;4.30;3.50;;;23.00;31.00;;;;;;5153780;27;20047;-66
2021/12/25 07:26:40;;;;;;;4.20;3.80;;;23.00;30.90;;;;;;5152922;27;20046;-66
2021/12/25 07:29:08;;;;;;;4.00;3.60;;;23.00;30.90;;;;;;5153991;27;20110;-66
2021/12/25 07:31:35;;;;;;;4.55;4.15;;;23.10;30.80;;;;;;5154048;27;20071;-65
2021/12/25 07:34:02;;;;;;;4.22;3.75;;;23.10;30.80;;;;;;5153736;27;20379;-66
2021/12/25 07:36:30;;;;;;;4.63;4.22;;;23.20;30.80;;;;;;5152797;27;20078;-66
2021/12/25 07:38:57;;;;;;;6.00;3.63;;;23.20;30.80;;;;;;5153472;27;20526;-66
2021/12/25 07:41:25;;;;;;;6.03;4.93;;;23.20;30.70;;;;;;5153477;27;20502;-66
2021/12/25 07:43:52;;;;;;;4.72;4.13;;;23.20;30.70;;;;;;5154199;27;20447;-66
2021/12/25 07:46:22;;;;;;;5.25;4.63;;;23.30;30.70;;;;;;5152978;27;20134;-66
2021/12/25 07:48:50;;;;;;;6.07;4.63;;;23.30;30.60;;;;;;5153130;27;20479;-66
2021/12/25 07:51:17;;;;;;;5.28;4.45;;;23.30;30.60;;;;;;5134466;27;20043;-66
2021/12/25 08:01:35;;;;;;;6.38;5.22;;;23.40;30.40;;;;;;5152201;27;20037;-66
2021/12/25 08:04:03;;;;;;;;;;;23.50;30.40;;;;;;5152230;27;20043;-66
2021/12/25 08:06:31;;;;;;;6.47;5.22;;;23.50;30.40;;;;;;5151101;27;20386;-66
2021/12/25 08:09:01;;;;;;;8.88;6.30;;;23.50;30.30;;;;;;5134804;27;20074;-65
2021/12/25 08:11:30;;;;;;;5.72;5.13;;;23.60;30.30;;;;;;5152795;27;20054;-66
2021/12/25 08:13:57;;;;;;;7.05;6.13;;;23.60;30.30;;;;;;5153252;27;20509;-66
2021/12/25 08:16:25;;;;;;;7.20;6.00;;;23.60;30.30;;;;;;5151997;27;20145;-66
2021/12/25 08:18:52;;;;;;;6.90;6.20;;;23.70;30.30;;;;;;5152789;27;20039;-66
2021/12/25 08:21:19;;;;;;;6.93;6.22;;;23.70;30.30;;;;;;5152901;27;20050;-66
2021/12/25 08:23:47;;;;;;;8.40;6.90;;;23.80;30.30;;;;;;5134325;27;20047;-66
2021/12/25 08:26:15;;;;;;;8.43;7.13;;;23.80;30.30;;;;;;5134720;27;20042;-66
2021/12/25 08:28:42;;;;;;;8.48;7.03;;;23.80;30.20;;;;;;5152335;27;20070;-66
2021/12/25 08:31:09;;;;;;;8.32;6.78;;;23.90;30.20;;;;;;5152721;27;20186;-66
2021/12/25 08:33:36;;;;;;;9.00;7.35;;;23.90;30.20;;;;;;5152536;27;20053;-66
2021/12/25 08:36:04;;;;;;;7.53;6.70;;;24.00;30.20;;;;;;5152180;27;20138;-66
2021/12/25 08:38:31;;;;;;;8.85;7.63;;;24.00;30.20;;;;;;5131164;27;20130;-66
2021/12/25 08:40:58;;;;;;;9.10;7.70;;;24.00;30.20;;;;;;5131501;27;20043;-66
2021/12/25 08:43:25;;;;;;;9.07;7.78;;;24.10;30.20;;;;;;5131575;27;20047;-66
2021/12/25 08:48:40;;;;;;;8.68;7.38;;;24.10;30.20;;;;;;5151917;27;20051;-66
2021/12/25 08:51:09;;;;;;;9.20;8.20;;;24.20;30.20;;;;;;5151810;27;20753;-66
2021/12/25 08:53:36;;;;;;;8.40;7.32;;;24.20;30.20;;;;;;5152359;27;20042;-66
2021/12/25 08:56:04;;;;;;;9.10;7.53;;;24.20;30.20;;;;;;5152057;27;20078;-66
2021/12/25 08:58:31;;;;;;;9.65;7.80;;;24.30;30.30;;;;;;5151463;27;20053;-66
2021/12/25 09:01:01;;;;;;;10.85;8.55;;;24.30;30.20;;;;;;5152484;27;20376;-66
2021/12/25 09:03:30;;;;;;;10.80;8.77;;;24.40;30.20;;;;;;5152105;27;20487;-66
2021/12/25 09:06:01;;;;;;;10.57;8.55;;;24.40;30.20;;;;;;5151478;27;20129;-66
2021/12/25 09:08:28;;;;;;;;;;;24.40;30.20;;;;;;5152004;27;20142;-66
2021/12/25 09:10:55;;;;;;;10.73;8.38;;;24.50;30.10;;;;;;5151980;27;19938;-67
2021/12/25 09:13:23;;;;;;;10.23;8.77;;;24.50;30.10;;;;;;5150653;27;20074;-66
2021/12/25 09:15:50;;;;;;;11.70;9.27;;;24.60;30.10;;;;;;5150150;27;20574;-66
2021/12/25 09:18:18;;;;;;;9.75;8.55;;;24.60;30.00;;;;;;5151108;27;20475;-67
2021/12/25 09:20:45;;;;;;;11.70;9.35;;;24.70;30.10;;;;;;5151894;27;20483;-66
2021/12/25 09:23:12;;;;;;;9.98;8.88;;;24.70;30.00;;;;;;5133676;27;20387;-66
2021/12/25 09:25:39;;;;;;;10.48;9.02;;;24.80;30.00;;;;;;5152325;27;20076;-66
2021/12/25 09:28:06;;;;;;;10.93;9.68;;;24.80;30.00;;;;;;5150733;27;20078;-67
2021/12/25 09:30:36;;;;;;;11.85;10.15;;;24.80;30.00;;;;;;5151540;27;20138;-67
2021/12/25 09:33:04;;;;;;;12.18;10.32;;;24.90;30.00;;;;;;5150457;27;20074;-66
2021/12/25 09:35:53;;;;;;;12.70;10.32;;;24.90;30.00;;;;;;5149504;27;20436;-67
2021/12/25 09:38:20;;;;;;;12.63;10.37;;;25.00;30.00;;;;;;5151159;27;20053;-66
2021/12/25 09:40:48;;;;;;;12.30;9.68;;;25.00;30.00;;;;;;5151486;27;20353;-66
2021/12/25 09:43:18;;;;;;;13.68;10.15;;;25.00;30.00;;;;;;5151675;27;20099;-66
2021/12/25 09:45:45;;;;;;;;;;;25.10;30.00;;;;;;5156316;27;20133;-66
2021/12/25 09:48:12;;;;;;;12.63;10.10;;;25.10;30.00;;;;;;5154953;27;19919;-66
2021/12/25 09:50:40;;;;;;;11.05;9.85;;;25.10;30.00;;;;;;5155795;27;20495;-66
2021/12/25 09:53:10;;;;;;;11.60;9.68;;;25.10;30.00;;;;;;5155653;27;20087;-66
2021/12/25 09:55:38;;;;;;;11.45;9.95;;;25.10;30.00;;;;;;5155979;27;20039;-67
2021/12/25 09:58:06;;;;;;;12.60;9.85;;;25.10;30.00;;;;;;5154649;27;20103;-66
2021/12/25 10:00:36;;;;;;;11.55;9.55;;;25.20;30.00;;;;;;5137106;27;20046;-68
2021/12/25 10:03:21;;;;;;;12.60;9.35;;;25.20;30.00;;;;;;5155761;27;20133;-66
2021/12/25 10:05:50;;;;;;;12.07;9.35;;;25.20;30.60;;;;;;5155434;27;20042;-66
2021/12/25 10:08:20;;;;;;;11.13;8.88;;;25.20;30.00;;;;;;5154702;27;20488;-66
2021/12/25 10:10:50;;;;;;;;;;;25.30;30.10;;;;;;5155560;27;20134;-66
2021/12/25 10:13:24;;;;;;;11.52;8.10;;;25.30;30.10;;;;;;5155728;27;20295;-66
2021/12/25 10:15:54;;;;;;;10.45;8.40;;;25.30;30.60;;;;;;5155539;27;20187;-66
2021/12/25 10:18:27;;;;;;;8.90;7.70;;;25.40;30.10;;;;;;5154634;27;20066;-66
2021/12/25 10:20:55;;;;;;;9.20;7.65;;;25.40;30.10;;;;;;5155088;27;20556;-66
2021/12/25 10:23:28;;;;;;;9.95;8.35;;;25.40;30.10;;;;;;5155148;27;20047;-66
2021/12/25 10:26:00;;;;;;;8.45;7.55;;;25.40;30.10;;;;;;5154954;27;20054;-66
2021/12/25 10:28:38;;;;;;;7.90;6.65;;;25.40;30.10;;;;;;5154437;27;20092;-66
2021/12/25 10:31:14;;;;;;;8.15;7.00;;;25.50;30.20;;;;;;5154512;27;20043;-66
2021/12/25 10:33:51;;;;;;;6.93;6.05;;;25.50;30.20;;;;;;5154846;27;20137;-67
2021/12/25 10:36:31;;;;;;;7.40;6.55;;;25.60;30.20;;;;;;5154174;27;20051;-66
2021/12/25 10:39:21;;;;;;;6.57;5.80;;;25.60;30.10;;;;;;5154944;27;20388;-66
2021/12/25 10:41:57;;;;;;;6.45;5.78;;;25.70;30.20;;;;;;5140258;27;20087;-66
2021/12/25 10:44:28;;;;;;;6.75;6.00;;;25.70;30.10;;;;;;5154903;27;20047;-66
2021/12/25 10:46:58;;;;;;;7.15;6.15;;;25.80;30.20;;;;;;5153686;27;20455;-66
2021/12/25 10:49:33;;;;;;;6.00;5.40;;;25.80;30.10;;;;;;5155139;27;20403;-66
2021/12/25 10:52:19;;;;;;;6.30;5.60;;;25.80;30.70;;;;;;5154836;27;20493;-66
2021/12/25 10:55:04;;;;;;;5.93;5.28;;;25.90;30.20;;;;;;5154495;27;20126;-66
2021/12/25 10:57:40;;;;;;;6.93;5.65;;;25.90;30.10;;;;;;5154040;27;20107;-66
2021/12/25 11:00:29;;;;;;;5.32;4.82;;;26.00;30.20;;;;;;5154704;27;20450;-66
2021/12/25 11:03:09;;;;;;;5.97;5.07;;;26.00;30.10;;;;;;5154304;27;20407;-66
2021/12/25 11:05:39;;;;;;;5.72;5.03;;;26.00;30.10;;;;;;5154603;27;20149;-66
2021/12/25 11:08:12;;;;;;;5.38;4.80;;;26.00;30.10;;;;;;5135199;27;20051;-66
2021/12/25 11:10:53;;;;;;;6.40;5.35;;;26.00;30.10;;;;;;5154099;27;20074;-66
2021/12/25 11:13:35;;;;;;;4.63;4.22;;;26.10;30.10;;;;;;5154054;27;20064;-66
2021/12/25 11:16:31;;;;;;;4.97;4.47;;;26.10;30.20;;;;;;5119814;27;20103;-66
2021/12/25 11:19:06;;;;;;;5.90;4.88;;;26.10;30.20;;;;;;5154529;27;20103;-66
2021/12/25 11:21:37;;;;;;;4.30;3.90;;;26.10;30.20;;;;;;5153801;27;20095;-66
2021/12/25 11:24:16;;;;;;;4.70;4.30;;;26.10;30.30;;;;;;5154091;27;20078;-66
2021/12/25 11:26:47;;;;;;;4.35;3.95;;;26.10;30.30;;;;;;5153295;27;20058;-66
2021/12/25 11:29:16;;;;;;;4.50;4.07;;;26.00;30.30;;;;;;5135453;27;20078;-66
2021/12/25 11:31:45;;;;;;;4.15;3.70;;;26.00;30.40;;;;;;5153582;27;20129;-66
2021/12/25 11:34:13;;;;;;;4.45;3.50;;;26.00;30.40;;;;;;5154132;27;20047;-66
2021/12/25 11:36:42;;;;;;;3.92;3.53;;;26.00;30.50;;;;;;5152681;27;20419;-67
2021/12/25 11:39:09;;;;;;;4.75;3.97;;;26.00;30.50;;;;;;5153883;27;20085;-66
2021/12/25 11:41:39;;;;;;;4.05;3.50;;;26.00;30.60;;;;;;5153288;27;20077;-66
2021/12/25 11:44:30;;;;;;;3.38;3.17;;;25.90;30.50;;;;;;5153447;27;20047;-66
2021/12/25 11:46:58;;;;;;;3.25;2.95;;;26.00;30.70;;;;;;5152862;27;20091;-67
2021/12/25 11:49:25;;;;;;;3.20;2.90;;;26.00;30.70;;;;;;5153928;27;20050;-67
2021/12/25 11:51:52;;;;;;;3.53;3.22;;;25.90;30.70;;;;;;5153206;27;20078;-66
2021/12/25 11:55:09;;;;;;;3.90;3.50;;;25.90;30.70;;;;;;5135088;27;20493;-67
2021/12/25 11:59:52;;;;;;;3.38;3.08;;;25.90;30.80;;;;;;5153667;27;20122;-66
2021/12/25 12:02:43;;;;;;;3.33;3.03;;;25.90;30.90;;;;;;5153092;27;20089;-66
2021/12/25 12:05:27;;;;;;;2.80;2.45;;;25.90;30.90;;;;;;5153201;27;20125;-66
2021/12/25 12:08:08;;;;;;;2.92;2.70;;;25.90;31.00;;;;;;5151721;27;20063;-67
2021/12/25 12:10:50;;;;;;;3.28;2.97;;;25.90;31.00;;;;;;5153411;27;20042;-66
2021/12/25 12:13:30;;;;;;;2.90;2.60;;;25.80;31.00;;;;;;5152952;27;20527;-67
2021/12/25 12:16:04;;;;;;;3.25;2.85;;;25.80;31.00;;;;;;5153078;27;20095;-67
2021/12/25 12:18:34;;;;;;;3.03;2.72;;;25.80;31.10;;;;;;5152422;27;20051;-66
2021/12/25 12:21:32;;;;;;;3.10;2.78;;;25.80;31.10;;;;;;5153270;27;20545;-67
2021/12/25 12:24:43;;;;;;;2.50;2.20;;;25.80;31.10;;;;;;5152450;27;20140;-66
2021/12/25 12:27:11;;;;;;;2.35;2.15;;;25.90;31.20;;;;;;5150726;27;20061;-66
2021/12/25 12:29:53;;;;;;;2.85;2.55;;;25.90;31.20;;;;;;5151742;27;20078;-66
2021/12/25 12:32:46;;;;;;;2.35;2.17;;;25.90;31.20;;;;;;5150299;27;20426;-67
2021/12/25 12:35:35;;;;;;;2.60;2.40;;;25.90;31.20;;;;;;5149067;27;20134;-67
2021/12/25 12:45:56;;;;;;;2.30;2.13;;;25.90;31.20;;;;;;5149649;27;20544;-66
2021/12/25 12:48:23;;;;;;;2.42;2.15;;;25.90;31.10;;;;;;5131799;27;20225;-66
2021/12/25 12:50:53;;;;;;;2.30;1.90;;;25.90;31.20;;;;;;5151495;27;20078;-67
2021/12/25 12:53:22;;;;;;;1.77;1.67;;;25.90;31.10;;;;;;5149363;27;20070;-67
2021/12/25 12:55:52;;;;;;;2.22;2.05;;;25.90;31.10;;;;;;5149268;27;20050;-67
2021/12/25 12:58:25;;;;;;;1.95;1.80;;;25.90;31.20;;;;;;5149668;27;20047;-67
2021/12/25 13:00:56;;;;;;;2.45;2.25;;;25.90;31.10;;;;;;5151161;27;20137;-66
2021/12/25 13:03:27;;;;;;;5.10;1.83;;;25.90;31.10;;;;;;5148910;27;20039;-67
2021/12/25 13:05:55;;;;;;;;;;;25.90;31.20;;;;;;5149588;27;20099;-67
2021/12/25 13:08:27;;;;;;;2.10;1.88;;;25.90;31.20;;;;;;5149671;27;19918;-67
2021/12/25 13:11:03;;;;;;;2.25;1.85;;;25.90;31.20;;;;;;5132904;27;20487;-67
2021/12/25 13:13:39;;;;;;;1.95;1.85;;;25.90;31.20;;;;;;5148955;27;20047;-67
2021/12/25 13:16:12;;;;;;;1.95;1.85;;;25.90;31.20;;;;;;5148866;27;20441;-67
2021/12/25 13:18:46;;;;;;;1.88;1.77;;;26.00;31.20;;;;;;5149244;27;20097;-66
2021/12/25 13:21:22;;;;;;;1.75;1.63;;;26.00;31.20;;;;;;5132227;27;20078;-67
2021/12/25 13:23:54;;;;;;;1.60;1.50;;;26.00;31.20;;;;;;5148333;27;20487;-67
2021/12/25 13:26:32;;;;;;;2.20;1.65;;;26.00;31.10;;;;;;5148577;27;20082;-67
2021/12/25 13:29:05;;;;;;;1.60;1.50;;;26.00;31.10;;;;;;5151218;27;20122;-66
2021/12/25 13:31:34;;;;;;;1.70;1.60;;;26.00;31.10;;;;;;5150217;27;20445;-66
2021/12/25 13:34:07;;;;;;;1.55;1.45;;;26.00;31.10;;;;;;5149031;27;20050;-67
2021/12/25 13:36:36;;;;;;;1.60;1.50;;;26.00;31.10;;;;;;5147886;27;20323;-67
2021/12/25 13:39:09;;;;;;;1.17;1.17;;;26.00;31.10;;;;;;5150852;27;20459;-67
2021/12/25 13:41:41;;;;;;;3.38;1.67;;;26.00;31.80;;;;;;5131799;27;20047;-66
2021/12/25 13:44:15;;;;;;;1.52;1.42;;;26.00;31.20;;;;;;5148900;27;20121;-66
2021/12/25 13:50:52;;;;;;;1.58;1.48;;;26.00;31.10;;;;;;5150661;27;20038;-66
2021/12/25 13:53:19;;;;;;;1.52;1.42;;;26.00;31.10;;;;;;5148537;27;20522;-67
2021/12/25 13:55:47;;;;;;;1.60;1.50;;;26.00;31.20;;;;;;5148635;27;20257;-66
2021/12/25 13:58:17;;;;;;;1.50;1.40;;;26.00;31.20;;;;;;5149857;27;20070;-67
2021/12/25 14:00:50;;;;;;;1.55;1.45;;;26.00;31.20;;;;;;5150918;27;20050;-66
2021/12/25 14:11:21;;;;;;;1.58;1.48;;;26.00;31.30;;;;;;5150625;27;20050;-66
2021/12/25 14:13:48;;;;;;;1.65;1.55;;;26.00;31.30;;;;;;5148292;27;20043;-67
2021/12/25 14:16:16;;;;;;;2.08;1.88;;;26.00;31.30;;;;;;5148660;27;20047;-68
2021/12/25 14:18:43;;;;;;;1.10;1.10;;;26.00;31.30;;;;;;5150013;27;20110;-66
2021/12/25 14:21:22;;;;;;;1.38;1.27;;;26.00;31.30;;;;;;5150282;27;20058;-66
2021/12/25 14:24:15;;;;;;;1.38;1.27;;;26.00;31.30;;;;;;5148269;27;20093;-67
2021/12/25 14:26:43;;;;;;;1.40;1.30;;;26.00;31.30;;;;;;5148159;27;20054;-67
2021/12/25 14:29:22;;;;;;;1.55;1.20;;;26.00;31.30;;;;;;5150761;27;20181;-67
2021/12/25 14:35:58;;;;;;;1.13;1.05;;;26.00;31.40;;;;;;5151119;27;20069;-67
2021/12/25 14:38:37;;;;;;;1.30;1.20;;;26.00;31.40;;;;;;5153079;27;20046;-66